Shinsei Maru — JD2188 — position and weather

sailwx.info

Track history (hours):
 
Tides and Currents Weather Stations Pressure Air Temp Water Temp Dewpoint Dewpoint Depression Visibility Wind Speed Wind Dir Waves Ship Positions

Shinsei Maru

Last reported at 2014-Sep-23 03:31 UTC. Time now 2014-Sep-23 04:21 UTC.
Position N 34°13' E 135°08'.

Length 104 m; draft 5.4 m.

Type: Tanker. MMSI: 431301775.

Date/timePositionNaut miles runAvg speedWind from/ knotsBaromVisibWave heightAir tempDewpointWater temp
2014-Sep-23 03:31N 34°13' E 135°08'0 0.0
2014-Sep-23 02:31N 34°13' E 135°08'0 0.0
2014-Sep-23 01:31N 34°13' E 135°08'0 0.0
2014-Sep-23 00:31N 34°13' E 135°08'0 0.0
2014-Sep-22 23:31N 34°13' E 135°08'0 0.0
2014-Sep-22 22:31N 34°13' E 135°08'0 0.0
2014-Sep-22 21:31N 34°13' E 135°08'0 0.0
2014-Sep-22 20:31N 34°13' E 135°08'0 0.0
2014-Sep-22 19:31N 34°13' E 135°08'0 0.0
2014-Sep-22 18:31N 34°13' E 135°08'0 0.0
2014-Sep-22 17:32N 34°13' E 135°08'0 0.0
2014-Sep-22 16:32N 34°13' E 135°08'0 0.0
2014-Sep-22 15:32N 34°13' E 135°08'0 0.0
2014-Sep-22 14:32N 34°13' E 135°08'0 0.0
2014-Sep-22 13:32N 34°13' E 135°08'0 0.0
2014-Sep-22 12:32N 34°13' E 135°08'0 0.0
2014-Sep-22 11:32N 34°13' E 135°08'0 0.0
2014-Sep-22 10:32N 34°13' E 135°08'0 0.0
2014-Sep-22 09:32N 34°13' E 135°08'0 0.0
2014-Sep-22 08:31N 34°13' E 135°08'0 0.0
2014-Sep-22 07:30N 34°13' E 135°08'0 0.0
2014-Sep-22 06:31N 34°13' E 135°08'0 0.0
2014-Sep-22 05:31N 34°13' E 135°08'0 0.0
2014-Sep-22 04:31N 34°13' E 135°08'3 3.6
2014-Sep-22 03:33N 34°09' E 135°08'0 0.3
2014-Sep-22 02:29N 34°09' E 135°08'0 0.0
2014-Sep-22 01:32N 34°09' E 135°08'0 0.1
2014-Sep-22 00:29N 34°09' E 135°08'0 0.1
2014-Sep-21 23:32N 34°09' E 135°08'0 0.1
2014-Sep-21 22:32N 34°09' E 135°08'0 0.1
2014-Sep-21 21:32N 34°09' E 135°08'0 0.0
2014-Sep-21 20:32N 34°09' E 135°08'0 0.1
2014-Sep-21 19:32N 34°09' E 135°08'0 0.0
2014-Sep-21 18:29N 34°09' E 135°08'0 0.1
2014-Sep-21 17:32N 34°09' E 135°08'0 0.0
2014-Sep-21 16:26N 34°09' E 135°08'0 0.1
2014-Sep-21 15:32N 34°09' E 135°08'0 0.0
2014-Sep-21 14:29N 34°09' E 135°08'0 0.0
2014-Sep-21 12:32N 34°09' E 135°08'0 0.0
2014-Sep-21 11:32N 34°09' E 135°08'0 0.0
2014-Sep-21 10:24N 34°09' E 135°08'0 0.0
2014-Sep-21 09:31N 34°09' E 135°08'0 0.1
2014-Sep-21 08:32N 34°09' E 135°08'2 0.2
2014-Sep-20 23:13N 34°08' E 135°07'0 0.1
2014-Sep-20 22:32N 34°08' E 135°07'0 0.0
2014-Sep-20 21:26N 34°08' E 135°07'0 0.0
2014-Sep-20 20:32N 34°08' E 135°07'0 0.1
2014-Sep-20 19:32N 34°08' E 135°07'0 0.0
2014-Sep-20 18:18N 34°08' E 135°07'810.3
2014-Sep-20 17:30N 34°14' E 135°00'1212.8
2014-Sep-20 16:33N 34°25' E 135°06'1414.5
2014-Sep-20 15:34N 34°33' E 135°21'4 4.2
2014-Sep-20 14:33N 34°33' E 135°26'0 0.1
2014-Sep-20 13:31N 34°33' E 135°26'0 0.0
2014-Sep-20 12:31N 34°33' E 135°26'0 0.0
2014-Sep-20 11:31N 34°33' E 135°26'0 0.0
2014-Sep-20 10:31N 34°33' E 135°26'0 0.0
2014-Sep-20 09:31N 34°33' E 135°26'0 0.0
2014-Sep-20 08:16N 34°33' E 135°26'0 0.0
2014-Sep-20 07:33N 34°33' E 135°26'0 0.0
2014-Sep-20 06:33N 34°33' E 135°26'0 0.0
2014-Sep-20 05:27N 34°33' E 135°26'0 0.0
2014-Sep-20 04:33N 34°33' E 135°26'0 0.1
2014-Sep-20 03:30N 34°33' E 135°26'5 1.4
2014-Sep-20 00:07N 34°32' E 135°20'0 0.0
2014-Sep-19 21:13N 34°32' E 135°20'710.5
2014-Sep-19 20:33N 34°28' E 135°13'1613.5
2014-Sep-19 19:23N 34°17' E 134°59'1113.9
2014-Sep-19 18:33N 34°06' E 134°60'  
2014-Sep-17 14:31N 35°03' E 139°37'1313.7
2014-Sep-17 13:33N 35°14' E 139°46'1212.0
2014-Sep-17 12:33N 35°26' E 139°44'6 5.1
2014-Sep-17 11:29N 35°31' E 139°46'0 0.0
2014-Sep-17 10:29N 35°31' E 139°46'0 0.0
2014-Sep-17 09:32N 35°31' E 139°46'0 0.0
2014-Sep-17 08:29N 35°31' E 139°46'0 0.0
2014-Sep-17 07:27N 35°31' E 139°46'0 0.0
2014-Sep-17 06:33N 35°31' E 139°46'0 0.0
2014-Sep-17 05:27N 35°31' E 139°46'0 0.0
2014-Sep-17 04:33N 35°31' E 139°46'5 4.5
2014-Sep-17 03:34N 35°28' E 139°42'4 4.3
2014-Sep-17 02:32N 35°24' E 139°46'0 0.0
2014-Sep-17 01:32N 35°24' E 139°46'0 0.1
2014-Sep-17 00:29N 35°24' E 139°46'0 0.0
2014-Sep-16 23:29N 35°24' E 139°46'0 0.0
2014-Sep-16 22:32N 35°24' E 139°46'0 0.0
2014-Sep-16 21:32N 35°24' E 139°46'0 0.0
2014-Sep-16 20:32N 35°24' E 139°46'2 2.1
2014-Sep-16 19:33N 35°23' E 139°45'1211.6
2014-Sep-16 18:33N 35°11' E 139°47'1612.9
2014-Sep-16 17:19N 34°55' E 139°44'1112.2
2014-Sep-16 16:25N 34°50' E 139°56'1112.0
2014-Sep-16 15:32N 34°55' E 140°07'1211.8
2014-Sep-16 14:30N 35°02' E 140°20'1111.6
2014-Sep-16 13:31N 35°09' E 140°30'1913.5
2014-Sep-16 12:05N 35°25' E 140°44'814.1
2014-Sep-16 11:33N 35°31' E 140°49'  
Track history (hours):
 
Tides and Currents Weather Stations Pressure Air Temp Water Temp Dewpoint Dewpoint Depression Visibility Wind Speed Wind Dir Waves Ship Positions

Shinsei Maru

Last reported at 2014-Sep-23 03:31 UTC. Time now 2014-Sep-23 04:21 UTC.
Position N 34°13' E 135°08'.

Length 104 m; draft 5.4 m.

Type: Tanker. MMSI: 431301775.

Date/timePositionNaut miles runAvg speedWind from/ knotsBaromVisibWave heightAir tempDewpointWater temp
2014-Sep-23 03:31N 34°13' E 135°08'0 0.0
2014-Sep-23 02:31N 34°13' E 135°08'0 0.0
2014-Sep-23 01:31N 34°13' E 135°08'0 0.0
2014-Sep-23 00:31N 34°13' E 135°08'0 0.0
2014-Sep-22 23:31N 34°13' E 135°08'0 0.0
2014-Sep-22 22:31N 34°13' E 135°08'0 0.0
2014-Sep-22 21:31N 34°13' E 135°08'0 0.0
2014-Sep-22 20:31N 34°13' E 135°08'0 0.0
2014-Sep-22 19:31N 34°13' E 135°08'0 0.0
2014-Sep-22 18:31N 34°13' E 135°08'0 0.0
2014-Sep-22 17:32N 34°13' E 135°08'0 0.0
2014-Sep-22 16:32N 34°13' E 135°08'0 0.0
2014-Sep-22 15:32N 34°13' E 135°08'0 0.0
2014-Sep-22 14:32N 34°13' E 135°08'0 0.0
2014-Sep-22 13:32N 34°13' E 135°08'0 0.0
2014-Sep-22 12:32N 34°13' E 135°08'0 0.0
2014-Sep-22 11:32N 34°13' E 135°08'0 0.0
2014-Sep-22 10:32N 34°13' E 135°08'0 0.0
2014-Sep-22 09:32N 34°13' E 135°08'0 0.0
2014-Sep-22 08:31N 34°13' E 135°08'0 0.0
2014-Sep-22 07:30N 34°13' E 135°08'0 0.0
2014-Sep-22 06:31N 34°13' E 135°08'0 0.0
2014-Sep-22 05:31N 34°13' E 135°08'0 0.0
2014-Sep-22 04:31N 34°13' E 135°08'3 3.6
2014-Sep-22 03:33N 34°09' E 135°08'0 0.3
2014-Sep-22 02:29N 34°09' E 135°08'0 0.0
2014-Sep-22 01:32N 34°09' E 135°08'0 0.1
2014-Sep-22 00:29N 34°09' E 135°08'0 0.1
2014-Sep-21 23:32N 34°09' E 135°08'0 0.1
2014-Sep-21 22:32N 34°09' E 135°08'0 0.1
2014-Sep-21 21:32N 34°09' E 135°08'0 0.0
2014-Sep-21 20:32N 34°09' E 135°08'0 0.1
2014-Sep-21 19:32N 34°09' E 135°08'0 0.0
2014-Sep-21 18:29N 34°09' E 135°08'0 0.1
2014-Sep-21 17:32N 34°09' E 135°08'0 0.0
2014-Sep-21 16:26N 34°09' E 135°08'0 0.1
2014-Sep-21 15:32N 34°09' E 135°08'0 0.0
2014-Sep-21 14:29N 34°09' E 135°08'0 0.0
2014-Sep-21 12:32N 34°09' E 135°08'0 0.0
2014-Sep-21 11:32N 34°09' E 135°08'0 0.0
2014-Sep-21 10:24N 34°09' E 135°08'0 0.0
2014-Sep-21 09:31N 34°09' E 135°08'0 0.1
2014-Sep-21 08:32N 34°09' E 135°08'2 0.2
2014-Sep-20 23:13N 34°08' E 135°07'0 0.1
2014-Sep-20 22:32N 34°08' E 135°07'0 0.0
2014-Sep-20 21:26N 34°08' E 135°07'0 0.0
2014-Sep-20 20:32N 34°08' E 135°07'0 0.1
2014-Sep-20 19:32N 34°08' E 135°07'0 0.0
2014-Sep-20 18:18N 34°08' E 135°07'810.3
2014-Sep-20 17:30N 34°14' E 135°00'1212.8
2014-Sep-20 16:33N 34°25' E 135°06'1414.5
2014-Sep-20 15:34N 34°33' E 135°21'4 4.2
2014-Sep-20 14:33N 34°33' E 135°26'0 0.1
2014-Sep-20 13:31N 34°33' E 135°26'0 0.0
2014-Sep-20 12:31N 34°33' E 135°26'0 0.0
2014-Sep-20 11:31N 34°33' E 135°26'0 0.0
2014-Sep-20 10:31N 34°33' E 135°26'0 0.0
2014-Sep-20 09:31N 34°33' E 135°26'0 0.0
2014-Sep-20 08:16N 34°33' E 135°26'0 0.0
2014-Sep-20 07:33N 34°33' E 135°26'0 0.0
2014-Sep-20 06:33N 34°33' E 135°26'0 0.0
2014-Sep-20 05:27N 34°33' E 135°26'0 0.0
2014-Sep-20 04:33N 34°33' E 135°26'0 0.1
2014-Sep-20 03:30N 34°33' E 135°26'5 1.4
2014-Sep-20 00:07N 34°32' E 135°20'0 0.0
2014-Sep-19 21:13N 34°32' E 135°20'710.5
2014-Sep-19 20:33N 34°28' E 135°13'1613.5
2014-Sep-19 19:23N 34°17' E 134°59'1113.9
2014-Sep-19 18:33N 34°06' E 134°60'  
2014-Sep-17 14:31N 35°03' E 139°37'1313.7
2014-Sep-17 13:33N 35°14' E 139°46'1212.0
2014-Sep-17 12:33N 35°26' E 139°44'6 5.1
2014-Sep-17 11:29N 35°31' E 139°46'0 0.0
2014-Sep-17 10:29N 35°31' E 139°46'0 0.0
2014-Sep-17 09:32N 35°31' E 139°46'0 0.0
2014-Sep-17 08:29N 35°31' E 139°46'0 0.0
2014-Sep-17 07:27N 35°31' E 139°46'0 0.0
2014-Sep-17 06:33N 35°31' E 139°46'0 0.0
2014-Sep-17 05:27N 35°31' E 139°46'0 0.0
2014-Sep-17 04:33N 35°31' E 139°46'5 4.5
2014-Sep-17 03:34N 35°28' E 139°42'4 4.3
2014-Sep-17 02:32N 35°24' E 139°46'0 0.0
2014-Sep-17 01:32N 35°24' E 139°46'0 0.1
2014-Sep-17 00:29N 35°24' E 139°46'0 0.0
2014-Sep-16 23:29N 35°24' E 139°46'0 0.0
2014-Sep-16 22:32N 35°24' E 139°46'0 0.0
2014-Sep-16 21:32N 35°24' E 139°46'0 0.0
2014-Sep-16 20:32N 35°24' E 139°46'2 2.1
2014-Sep-16 19:33N 35°23' E 139°45'1211.6
2014-Sep-16 18:33N 35°11' E 139°47'1612.9
2014-Sep-16 17:19N 34°55' E 139°44'1112.2
2014-Sep-16 16:25N 34°50' E 139°56'1112.0
2014-Sep-16 15:32N 34°55' E 140°07'1211.8
2014-Sep-16 14:30N 35°02' E 140°20'1111.6
2014-Sep-16 13:31N 35°09' E 140°30'1913.5
2014-Sep-16 12:05N 35°25' E 140°44'814.1
2014-Sep-16 11:33N 35°31' E 140°49'  

Dump ship's entire track history